createdAt,value
2019-01-16T00:00:57.591Z,11.17
2019-01-16T00:04:01.073Z,14.20
2019-01-16T00:06:40.537Z,10.67
2019-01-16T00:09:37.946Z,12.70
2019-01-16T00:12:32.350Z,13.37
2019-01-16T00:15:29.330Z,11.93
2019-01-16T00:18:17.460Z,11.03
2019-01-16T00:21:03.758Z,10.83
2019-01-16T00:23:57.853Z,11.83
2019-01-16T00:26:49.777Z,10.83
2019-01-16T00:29:33.417Z,10.63
2019-01-16T00:32:17.961Z,11.60
2019-01-16T00:35:12.253Z,10.33
2019-01-16T00:38:15.449Z,9.97
2019-01-16T00:41:04.098Z,9.80
2019-01-16T00:44:01.410Z,11.63
2019-01-16T00:46:40.748Z,10.43
2019-01-16T00:49:28.221Z,10.33
2019-01-16T00:52:15.189Z,11.67
2019-01-16T00:55:01.749Z,9.63
2019-01-16T00:57:59.389Z,10.73
2019-01-16T01:00:59.536Z,11.20
2019-01-16T01:03:50.629Z,9.20
2019-01-16T01:06:36.380Z,9.93
2019-01-16T01:09:29.843Z,10.07
2019-01-16T01:12:08.965Z,9.80
2019-01-16T01:15:06.265Z,8.93
2019-01-16T01:18:05.242Z,11.20
2019-01-16T01:20:52.074Z,10.03
2019-01-16T01:23:49.445Z,9.10
2019-01-16T01:26:37.361Z,9.43
2019-01-16T01:29:24.006Z,9.70
2019-01-16T01:32:07.703Z,8.37
2019-01-16T01:34:44.889Z,8.70
2019-01-16T01:37:32.955Z,9.10
2019-01-16T01:40:14.713Z,9.43
2019-01-16T01:43:02.536Z,9.43
2019-01-16T01:45:56.131Z,8.53
2019-01-16T01:48:49.582Z,10.07
2019-01-16T01:51:36.429Z,9.43
2019-01-16T01:54:36.882Z,9.33
2019-01-16T01:57:24.476Z,9.97
2019-01-16T02:00:11.986Z,8.63
2019-01-16T02:02:59.041Z,9.77
2019-01-16T02:05:39.978Z,9.87
2019-01-16T02:08:40.257Z,10.63
2019-01-16T02:11:28.346Z,10.50
2019-01-16T02:14:05.718Z,10.03
2019-01-16T02:17:12.086Z,9.37
2019-01-16T02:20:00.187Z,9.40
2019-01-16T02:22:45.871Z,10.03
2019-01-16T02:25:52.398Z,9.97
2019-01-16T02:28:40.722Z,9.10
2019-01-16T02:31:20.359Z,10.47
2019-01-16T02:34:08.486Z,9.80
2019-01-16T02:36:59.809Z,9.13
2019-01-16T02:39:47.894Z,10.77
2019-01-16T02:42:45.205Z,8.60
2019-01-16T02:45:33.260Z,7.90
2019-01-16T02:48:21.593Z,9.57
2019-01-16T02:50:59.290Z,9.70
2019-01-16T02:53:50.462Z,8.97
2019-01-16T02:56:33.930Z,9.40
2019-01-16T02:59:31.210Z,8.83
2019-01-16T03:02:19.555Z,9.53
2019-01-16T03:05:06.363Z,9.60
2019-01-16T03:08:00.648Z,8.23
2019-01-16T03:10:54.950Z,8.67
2019-01-16T03:13:42.882Z,9.00
2019-01-16T03:16:32.050Z,11.13
2019-01-16T03:19:27.023Z,8.43
2019-01-16T03:22:30.260Z,9.97
2019-01-16T03:25:14.061Z,8.30
2019-01-16T03:27:56.465Z,14.00
2019-01-16T03:30:38.979Z,10.57
2019-01-16T03:33:28.117Z,9.17
2019-01-16T03:36:16.114Z,8.63
2019-01-16T03:38:58.993Z,8.80
2019-01-16T03:41:47.078Z,8.47
2019-01-16T03:44:37.953Z,7.60
2019-01-16T03:47:21.655Z,8.17
2019-01-16T03:50:08.703Z,8.50
2019-01-16T03:52:54.788Z,8.10
2019-01-16T03:55:48.671Z,8.37
2019-01-16T03:58:28.802Z,7.37
2019-01-16T04:01:32.237Z,6.97
2019-01-16T04:04:23.070Z,7.57
2019-01-16T04:07:10.098Z,8.17
2019-01-16T04:10:01.352Z,7.47
2019-01-16T04:12:55.213Z,10.10
2019-01-16T04:15:43.654Z,9.27
2019-01-16T04:18:31.645Z,10.07
2019-01-16T04:21:11.059Z,9.00
2019-01-16T04:23:49.955Z,7.97
2019-01-16T04:26:47.225Z,8.17
2019-01-16T04:29:34.099Z,7.73
2019-01-16T04:32:30.950Z,8.63
2019-01-16T04:35:24.877Z,7.07
2019-01-16T04:38:02.346Z,7.77
2019-01-16T04:40:50.270Z,8.80
2019-01-16T04:43:33.078Z,9.07
2019-01-16T04:46:21.161Z,9.10
2019-01-16T04:48:57.179Z,6.83
2019-01-16T04:51:38.292Z,7.60
2019-01-16T04:54:26.345Z,7.50
2019-01-16T04:57:12.914Z,7.53
2019-01-16T05:00:07.377Z,8.10
2019-01-16T05:02:53.495Z,7.53
2019-01-16T05:05:37.216Z,7.47
2019-01-16T05:08:24.853Z,6.77
2019-01-16T05:11:12.503Z,7.47
2019-01-16T05:13:59.494Z,7.30
2019-01-16T05:16:50.587Z,10.27
2019-01-16T05:19:38.713Z,7.53
2019-01-16T05:22:25.998Z,7.27
2019-01-16T05:25:12.673Z,7.70
2019-01-16T05:27:59.609Z,8.03
2019-01-16T05:30:56.980Z,7.10
2019-01-16T05:33:33.010Z,7.43
2019-01-16T05:36:13.238Z,8.90
2019-01-16T05:39:00.318Z,6.93
2019-01-16T05:41:37.234Z,7.00
2019-01-16T05:44:24.410Z,7.67
2019-01-16T05:47:06.658Z,8.00
2019-01-16T05:50:02.592Z,8.77
2019-01-16T05:52:42.933Z,7.63
2019-01-16T05:55:35.202Z,10.33
2019-01-16T05:58:41.331Z,7.13
2019-01-16T06:01:27.342Z,7.27
2019-01-16T06:04:13.936Z,7.60
2019-01-16T06:07:00.654Z,7.53
2019-01-16T06:09:43.310Z,6.50
2019-01-16T06:12:33.286Z,7.07
2019-01-16T06:15:20.017Z,6.90
2019-01-16T06:18:06.653Z,6.37
2019-01-16T06:20:53.006Z,7.07
2019-01-16T06:23:46.313Z,6.40
2019-01-16T06:26:32.866Z,9.40
2019-01-16T06:29:26.689Z,7.57
2019-01-16T06:32:15.005Z,8.60
2019-01-16T06:35:02.914Z,7.80
2019-01-16T06:37:49.374Z,12.10
2019-01-16T06:40:52.526Z,16.60
2019-01-16T06:43:46.085Z,13.93
2019-01-16T06:46:34.073Z,7.90
2019-01-16T06:49:24.889Z,7.57
2019-01-16T06:52:15.450Z,7.60
2019-01-16T06:55:05.577Z,6.73
2019-01-16T06:57:56.545Z,5.83
2019-01-16T07:00:47.748Z,6.47
2019-01-16T07:03:34.294Z,7.20
2019-01-16T07:06:25.410Z,6.70
2019-01-16T07:09:06.357Z,7.67
2019-01-16T07:11:46.493Z,7.63
2019-01-16T07:14:24.906Z,5.83
2019-01-16T07:17:11.469Z,5.20
2019-01-16T07:19:56.422Z,9.07
2019-01-16T07:22:35.313Z,5.87
2019-01-16T07:25:19.254Z,4.97
2019-01-16T07:28:25.795Z,4.97
2019-01-16T07:31:16.989Z,5.77
2019-01-16T07:34:05.074Z,5.93
2019-01-16T07:37:08.458Z,5.53
2019-01-16T07:40:02.354Z,6.57
2019-01-16T07:42:46.973Z,6.70
2019-01-16T07:45:26.873Z,6.00
2019-01-16T07:48:23.729Z,6.57
2019-01-16T07:51:16.470Z,6.87
2019-01-16T07:54:14.409Z,5.27
2019-01-16T07:57:17.821Z,6.00
2019-01-16T08:00:11.935Z,8.23
2019-01-16T08:02:59.726Z,8.13
2019-01-16T08:05:46.977Z,7.83
2019-01-16T08:08:34.818Z,7.63
2019-01-16T08:11:16.197Z,6.50
2019-01-16T08:14:11.701Z,4.27
2019-01-16T08:16:59.777Z,4.50
2019-01-16T08:19:46.621Z,4.00
2019-01-16T08:22:49.825Z,3.87
2019-01-16T08:25:31.846Z,4.17
2019-01-16T08:28:19.838Z,2.97
2019-01-16T08:31:06.681Z,4.33
2019-01-16T08:33:53.631Z,4.83
2019-01-16T08:36:46.765Z,3.33
2019-01-16T08:39:34.837Z,4.03
2019-01-16T08:42:35.318Z,3.87
2019-01-16T08:45:33.657Z,4.50
2019-01-16T08:48:24.712Z,4.30
2019-01-16T08:51:03.545Z,3.33
2019-01-16T08:53:54.471Z,4.93
2019-01-16T08:56:46.898Z,3.80
2019-01-16T08:59:53.429Z,3.87
2019-01-16T09:02:36.066Z,3.30
2019-01-16T09:05:31.146Z,3.40
2019-01-16T09:08:18.055Z,5.73
2019-01-16T09:11:15.393Z,6.10
2019-01-16T09:13:55.800Z,5.33
2019-01-16T09:16:42.376Z,5.27
2019-01-16T09:19:21.218Z,3.93
2019-01-16T09:22:12.431Z,3.23
2019-01-16T09:24:54.234Z,4.00
2019-01-16T09:27:43.194Z,3.20
2019-01-16T09:30:30.831Z,3.60
2019-01-16T09:33:28.165Z,3.30
2019-01-16T09:36:16.254Z,3.60
2019-01-16T09:39:06.566Z,2.87
2019-01-16T09:42:12.910Z,3.57
2019-01-16T09:45:07.205Z,2.93
2019-01-16T09:47:46.303Z,3.63
2019-01-16T09:50:49.469Z,3.03
2019-01-16T09:53:46.346Z,3.43
2019-01-16T09:56:33.841Z,3.80
2019-01-16T09:59:27.126Z,4.10
2019-01-16T10:02:14.068Z,3.47
2019-01-16T10:05:02.137Z,4.80
2019-01-16T10:07:50.141Z,3.10
2019-01-16T10:10:38.121Z,3.63
2019-01-16T10:13:29.118Z,7.40
2019-01-16T10:16:23.757Z,3.67
2019-01-16T10:19:11.757Z,3.27
2019-01-16T10:21:59.818Z,5.53
2019-01-16T10:24:50.714Z,3.50
2019-01-16T10:27:37.686Z,3.27
2019-01-16T10:30:25.919Z,4.47
2019-01-16T10:33:26.413Z,4.47
2019-01-16T10:36:03.801Z,4.27
2019-01-16T10:38:51.874Z,3.47
2019-01-16T10:41:46.451Z,3.50
2019-01-16T10:44:33.470Z,2.77
2019-01-16T10:47:16.570Z,3.37
2019-01-16T10:50:02.506Z,4.50
2019-01-16T10:53:05.727Z,5.20
2019-01-16T10:55:59.527Z,3.20
2019-01-16T10:58:46.626Z,3.47
2019-01-16T11:01:30.891Z,5.93
2019-01-16T11:04:18.890Z,2.93
2019-01-16T11:07:16.357Z,3.10
2019-01-16T11:10:13.513Z,3.10
2019-01-16T11:13:01.586Z,3.43
2019-01-16T11:15:48.321Z,3.47
2019-01-16T11:18:34.265Z,4.83
2019-01-16T11:21:20.577Z,3.53
2019-01-16T11:24:01.040Z,2.80
2019-01-16T11:26:46.309Z,3.77
2019-01-16T11:29:33.033Z,3.47
2019-01-16T11:32:20.185Z,3.07
2019-01-16T11:35:14.493Z,4.93
2019-01-16T11:38:20.938Z,3.33
2019-01-16T11:41:07.201Z,3.50
2019-01-16T11:43:55.258Z,2.47
2019-01-16T11:46:43.437Z,3.57
2019-01-16T11:49:30.423Z,2.20
2019-01-16T11:52:18.518Z,3.00
2019-01-16T11:55:10.637Z,3.73
2019-01-16T11:57:57.925Z,4.53
2019-01-16T12:00:52.180Z,1.53
2019-01-16T12:03:52.528Z,2.60
2019-01-16T12:06:46.477Z,8.23
2019-01-16T12:09:38.525Z,3.37
2019-01-16T12:12:32.682Z,1.47
2019-01-16T12:15:13.007Z,1.37
2019-01-16T12:17:59.751Z,1.77
2019-01-16T12:20:51.477Z,1.83
2019-01-16T12:23:43.825Z,3.80
2019-01-16T12:26:34.714Z,1.40
2019-01-16T12:29:13.128Z,1.23
2019-01-16T12:31:53.947Z,1.23
2019-01-16T12:34:50.750Z,2.17
2019-01-16T12:37:37.726Z,3.47
2019-01-16T12:40:35.805Z,1.53
2019-01-16T12:43:36.322Z,3.13
2019-01-16T12:46:23.073Z,3.87
2019-01-16T12:49:09.917Z,1.77
2019-01-16T12:52:07.231Z,1.90
2019-01-16T12:54:58.125Z,2.70
2019-01-16T12:57:39.739Z,1.47
2019-01-16T13:00:36.233Z,1.83
2019-01-16T13:03:27.585Z,2.60
2019-01-16T13:09:01.090Z,1.97
2019-01-16T13:11:54.414Z,0.80
2019-01-16T13:14:45.582Z,1.27
2019-01-16T13:17:32.745Z,0.70
2019-01-16T13:20:13.241Z,0.73
2019-01-16T13:22:52.654Z,0.80
2019-01-16T13:25:39.548Z,1.10
2019-01-16T13:28:36.797Z,1.80
2019-01-16T13:31:26.513Z,1.90
2019-01-16T13:34:03.505Z,2.27
2019-01-16T13:36:50.526Z,0.70
2019-01-16T13:39:50.703Z,0.97
2019-01-16T13:42:27.494Z,0.90
2019-01-16T13:45:14.474Z,0.93
2019-01-16T13:47:58.445Z,0.93
2019-01-16T13:50:35.585Z,0.87
2019-01-16T13:53:29.809Z,0.83
2019-01-16T13:56:17.881Z,1.73
2019-01-16T13:58:55.155Z,1.10
2019-01-16T14:01:39.943Z,0.70
2019-01-16T14:04:26.723Z,0.67
2019-01-16T14:07:20.869Z,1.63
2019-01-16T14:10:11.953Z,1.60
2019-01-16T14:13:03.566Z,1.10
2019-01-16T14:15:54.610Z,1.30
2019-01-16T14:18:41.409Z,0.90
2019-01-16T14:21:30.213Z,2.13
2019-01-16T14:24:12.299Z,2.47
2019-01-16T14:27:00.384Z,1.97
2019-01-16T14:29:43.150Z,2.33
2019-01-16T14:32:43.629Z,1.10
2019-01-16T14:35:37.490Z,3.93
2019-01-16T14:38:18.449Z,1.60
2019-01-16T14:41:06.530Z,1.50
2019-01-16T14:43:53.258Z,2.83
2019-01-16T14:46:32.983Z,1.40
2019-01-16T14:49:11.024Z,2.20
2019-01-16T14:51:52.010Z,1.23
2019-01-16T14:54:49.418Z,1.97
2019-01-16T14:57:40.277Z,1.37
2019-01-16T15:00:36.321Z,2.73
2019-01-16T15:03:25.969Z,15.80
2019-01-16T15:06:13.704Z,2.53
2019-01-16T15:09:17.139Z,2.93
2019-01-16T15:12:13.929Z,2.43
2019-01-16T15:14:58.602Z,1.97
2019-01-16T15:17:46.982Z,2.93
2019-01-16T15:20:42.365Z,2.27
2019-01-16T15:23:25.080Z,3.40
2019-01-16T15:26:12.106Z,1.80
2019-01-16T15:29:00.187Z,2.37
2019-01-16T15:31:46.845Z,2.10
2019-01-16T15:34:33.741Z,2.13
2019-01-16T15:37:28.166Z,2.20
2019-01-16T15:40:14.840Z,2.50
2019-01-16T15:43:12.245Z,2.17
2019-01-16T15:46:18.625Z,4.97
2019-01-16T15:49:12.433Z,6.30
2019-01-16T15:52:00.503Z,12.87
2019-01-16T15:54:43.090Z,13.90
2019-01-16T15:57:49.581Z,11.97
2019-01-16T16:00:30.030Z,8.30
2019-01-16T16:03:18.113Z,20.63
2019-01-16T16:06:27.405Z,13.50
2019-01-16T16:09:18.457Z,12.37
2019-01-16T16:12:06.474Z,9.57
2019-01-16T16:15:00.385Z,7.50
2019-01-16T16:17:48.761Z,4.10
2019-01-16T16:20:35.568Z,6.27
2019-01-16T16:23:32.794Z,9.63
2019-01-16T16:26:33.058Z,3.97
2019-01-16T16:29:24.410Z,6.20
2019-01-16T16:32:10.875Z,5.53
2019-01-16T16:34:54.297Z,6.00
2019-01-16T16:37:48.374Z,5.60
2019-01-16T16:40:36.461Z,5.83
2019-01-16T16:43:20.669Z,3.97
2019-01-16T16:45:59.993Z,4.90
2019-01-16T16:48:46.924Z,5.10
2019-01-16T16:51:34.845Z,3.93
2019-01-16T16:54:38.037Z,6.50
2019-01-16T16:57:29.153Z,10.80
2019-01-16T17:00:14.928Z,13.47
2019-01-16T17:02:53.251Z,11.63
2019-01-16T17:05:55.821Z,9.37
2019-01-16T17:08:50.161Z,6.97
2019-01-16T17:11:53.461Z,7.87
2019-01-16T17:14:59.733Z,7.20
2019-01-16T17:17:48.240Z,11.43
2019-01-16T17:20:31.130Z,7.43
2019-01-16T17:23:24.737Z,9.40
2019-01-16T17:26:23.837Z,10.80
2019-01-16T17:29:21.000Z,7.43
2019-01-16T17:32:01.935Z,7.03
2019-01-16T17:34:59.593Z,7.60
2019-01-16T17:37:47.673Z,5.93
2019-01-16T17:40:25.237Z,7.10
2019-01-16T17:43:12.572Z,7.40
2019-01-16T17:45:58.854Z,7.17
2019-01-16T17:48:39.911Z,7.50
2019-01-16T17:51:27.981Z,6.40
2019-01-16T17:54:18.462Z,7.47
2019-01-16T17:57:05.526Z,8.37
2019-01-16T17:59:47.591Z,8.33
2019-01-16T18:02:30.169Z,9.40
2019-01-16T18:05:36.933Z,9.17
2019-01-16T18:08:18.358Z,7.07
2019-01-16T18:11:06.690Z,7.00
2019-01-16T18:14:00.631Z,7.53
2019-01-16T18:16:47.685Z,9.40
2019-01-16T18:19:35.814Z,5.53
2019-01-16T18:22:33.131Z,5.97
2019-01-16T18:25:23.054Z,4.90
2019-01-16T18:28:11.911Z,7.90
2019-01-16T18:31:09.890Z,5.17
2019-01-16T18:33:54.253Z,7.10
2019-01-16T18:36:51.766Z,8.93
2019-01-16T18:39:51.924Z,5.27
2019-01-16T18:42:40.017Z,5.13
2019-01-16T18:45:23.278Z,6.13
2019-01-16T18:48:10.265Z,6.70
2019-01-16T18:50:58.429Z,7.90
2019-01-16T18:53:45.426Z,7.53
2019-01-16T18:56:36.701Z,7.50
2019-01-16T18:59:36.951Z,8.07
2019-01-16T19:02:36.801Z,7.70
2019-01-16T19:05:41.353Z,8.80
2019-01-16T19:08:27.986Z,8.13
2019-01-16T19:11:05.214Z,7.00
2019-01-16T19:13:56.057Z,7.43
2019-01-16T19:16:49.900Z,7.33
2019-01-16T19:19:36.690Z,7.80
2019-01-16T19:22:27.518Z,8.93
2019-01-16T19:25:15.781Z,10.43
2019-01-16T19:28:02.261Z,10.60
2019-01-16T19:30:49.293Z,11.53
2019-01-16T19:33:26.470Z,10.23
2019-01-16T19:36:05.597Z,9.50
2019-01-16T19:39:02.817Z,9.83
2019-01-16T19:41:44.517Z,8.67
2019-01-16T19:44:24.582Z,8.50
2019-01-16T19:47:09.953Z,9.70
2019-01-16T19:50:10.223Z,8.10
2019-01-16T19:52:56.919Z,9.63
2019-01-16T19:55:43.702Z,8.10
2019-01-16T19:58:37.787Z,9.13
2019-01-16T20:01:20.581Z,8.87
2019-01-16T20:04:10.691Z,9.30
2019-01-16T20:06:57.681Z,9.30
2019-01-16T20:09:39.695Z,9.17
2019-01-16T20:12:27.035Z,9.67
2019-01-16T20:15:14.094Z,9.57
2019-01-16T20:18:01.023Z,10.13
2019-01-16T20:20:49.101Z,11.67
2019-01-16T20:23:28.424Z,10.13
2019-01-16T20:26:22.293Z,11.40
2019-01-16T20:29:21.197Z,12.50
2019-01-16T20:32:15.574Z,13.50
2019-01-16T20:35:02.340Z,14.93
2019-01-16T20:37:50.828Z,16.37
2019-01-16T20:40:43.808Z,17.07
2019-01-16T20:43:48.217Z,18.70
2019-01-16T20:46:50.679Z,15.53
2019-01-16T20:49:38.183Z,15.70
2019-01-16T20:52:28.992Z,13.30
2019-01-16T20:55:27.691Z,14.87
2019-01-16T20:58:23.185Z,21.00
2019-01-16T21:01:16.325Z,17.90
2019-01-16T21:04:10.498Z,18.20
2019-01-16T21:06:57.596Z,17.83
2019-01-16T21:09:44.790Z,19.00
2019-01-16T21:12:34.872Z,21.63
2019-01-16T21:15:37.085Z,18.57
2019-01-16T21:18:25.544Z,22.77
2019-01-16T21:21:20.353Z,19.97
2019-01-16T21:24:15.714Z,16.47
2019-01-16T21:27:16.110Z,15.00
2019-01-16T21:30:03.248Z,15.57
2019-01-16T21:32:41.918Z,13.20
2019-01-16T21:35:23.043Z,14.33
2019-01-16T21:38:08.487Z,12.33
2019-01-16T21:40:55.611Z,12.93
2019-01-16T21:43:56.087Z,14.80
2019-01-16T21:46:47.242Z,12.20
2019-01-16T21:49:35.501Z,12.83
2019-01-16T21:52:23.816Z,12.73
2019-01-16T21:55:20.950Z,13.17
2019-01-16T21:58:12.057Z,13.63
2019-01-16T22:00:46.937Z,14.77
2019-01-16T22:03:33.676Z,13.37
2019-01-16T22:06:27.729Z,12.87
2019-01-16T22:09:23.549Z,14.77
2019-01-16T22:12:10.216Z,16.50
2019-01-16T22:14:53.106Z,15.40
2019-01-16T22:17:41.342Z,15.03
2019-01-16T22:20:31.085Z,11.87
2019-01-16T22:23:38.049Z,11.10
2019-01-16T22:26:44.634Z,9.97
2019-01-16T22:29:40.865Z,8.00
2019-01-16T22:32:31.973Z,8.37
2019-01-16T22:35:20.085Z,7.70
2019-01-16T22:37:57.574Z,9.13
2019-01-16T22:40:45.824Z,9.57
2019-01-16T22:43:37.735Z,7.67
2019-01-16T22:46:24.634Z,7.00
2019-01-16T22:49:07.865Z,7.27
2019-01-16T22:51:49.642Z,7.03
2019-01-16T22:54:46.890Z,6.53
2019-01-16T22:57:33.571Z,8.03
2019-01-16T23:00:10.509Z,6.80
2019-01-16T23:02:50.082Z,5.53
2019-01-16T23:05:38.269Z,6.63
2019-01-16T23:08:32.463Z,4.80
2019-01-16T23:11:29.921Z,5.90
2019-01-16T23:14:18.005Z,9.73
2019-01-16T23:16:58.066Z,9.70
2019-01-16T23:19:48.997Z,9.93
2019-01-16T23:22:37.069Z,10.43
2019-01-16T23:25:31.145Z,8.93
2019-01-16T23:28:17.959Z,8.27
2019-01-16T23:31:01.705Z,7.53
2019-01-16T23:34:02.173Z,6.80
2019-01-16T23:37:05.632Z,6.17
2019-01-16T23:40:05.857Z,6.13
2019-01-16T23:42:45.912Z,5.50
2019-01-16T23:45:46.364Z,5.50
2019-01-16T23:48:37.482Z,4.50
2019-01-16T23:51:25.561Z,4.47
2019-01-16T23:54:02.712Z,4.73
2019-01-16T23:57:05.776Z,4.70
2019-01-16T23:59:53.282Z,3.50
